createdAt,value
2018-09-08T00:09:16.384Z,80.4
2018-09-08T00:19:30.128Z,81.3
2018-09-08T00:29:45.471Z,79.8
2018-09-08T00:40:00.175Z,80
2018-09-08T00:50:15.096Z,83.2
2018-09-08T01:00:29.427Z,81.9
2018-09-08T01:10:44.540Z,82
2018-09-08T01:20:59.250Z,78.6
2018-09-08T01:31:14.005Z,74.6
2018-09-08T01:41:28.048Z,73
2018-09-08T01:51:41.851Z,70.8
2018-09-08T02:01:56.052Z,71.1
2018-09-08T02:12:10.939Z,66.4
2018-09-08T02:22:26.540Z,65.7
2018-09-08T02:32:40.866Z,63.5
2018-09-08T02:42:54.944Z,59.6
2018-09-08T02:53:09.077Z,59.9
2018-09-08T03:03:23.327Z,54.3
2018-09-08T03:13:37.615Z,52.5
2018-09-08T03:23:52.560Z,49.1
2018-09-08T03:34:06.327Z,48.1
2018-09-08T03:44:20.162Z,41.8
2018-09-08T03:54:34.021Z,35.9
2018-09-08T04:04:49.072Z,33.7
2018-09-08T04:15:04.103Z,29.1
2018-09-08T04:25:18.865Z,26.3
2018-09-08T04:35:34.117Z,23.6
2018-09-08T04:45:48.009Z,22.1
2018-09-08T04:56:03.207Z,22.3
2018-09-08T05:06:16.946Z,21.7
2018-09-08T05:16:31.590Z,20.3
2018-09-08T05:26:47.298Z,18.8
2018-09-08T05:37:02.596Z,16
2018-09-08T05:47:18.277Z,14.9
2018-09-08T05:57:33.644Z,17.1
2018-09-08T06:07:48.424Z,20.2
2018-09-08T06:18:02.008Z,24.8
2018-09-08T06:28:17.016Z,33.2
2018-09-08T06:38:32.436Z,36.1
2018-09-08T06:48:47.987Z,40.5
2018-09-08T06:59:02.182Z,45.1
2018-09-08T07:09:17.213Z,50.5
2018-09-08T07:19:31.925Z,58.9
2018-09-08T07:29:47.282Z,66.6
2018-09-08T07:40:01.692Z,70.4
2018-09-08T07:50:15.581Z,73.5
2018-09-08T08:00:30.107Z,80.5
2018-09-08T08:10:44.535Z,87.4
2018-09-08T08:20:58.608Z,92.4
2018-09-08T08:31:12.722Z,92.2
2018-09-08T08:41:27.623Z,91.8
2018-09-08T08:51:41.602Z,92.5
2018-09-08T09:01:56.417Z,91
2018-09-08T09:12:11.655Z,94.2
2018-09-08T09:22:26.936Z,94.8
2018-09-08T09:32:40.580Z,96.8
2018-09-08T09:42:54.434Z,94.3
2018-09-08T09:53:09.641Z,96.9
2018-09-08T10:03:25.189Z,97.2
2018-09-08T10:23:53.975Z,95.1
2018-09-08T10:34:09.784Z,94.3
2018-09-08T10:44:23.732Z,93.3
2018-09-08T10:54:38.806Z,93.8
2018-09-08T11:04:54.431Z,93.2
2018-09-08T11:15:09.099Z,91.7
2018-09-08T11:25:24.471Z,91.5
2018-09-08T11:35:40.109Z,90
2018-09-08T11:45:55.759Z,90
2018-09-08T11:56:10.713Z,89
2018-09-08T12:06:25.609Z,88.5
2018-09-08T12:16:39.354Z,89.2
2018-09-08T12:26:54.507Z,88.7
2018-09-08T12:37:09.135Z,86.6
2018-09-08T12:47:24.714Z,82.7
2018-09-08T12:57:38.877Z,83.6
2018-09-08T13:07:52.899Z,83.7
2018-09-08T13:18:07.247Z,81.7
2018-09-08T13:28:21.877Z,80.9
2018-09-08T13:38:36.392Z,82.1
2018-09-08T13:48:50.345Z,81.1
2018-09-08T13:59:05.197Z,79.2
2018-09-08T14:09:20.012Z,77.9
2018-09-08T14:19:35.696Z,76.7
2018-09-08T14:29:51.128Z,76.1
2018-09-08T14:40:05.180Z,76.3
2018-09-08T14:50:19.523Z,76.6
2018-09-08T15:00:34.525Z,77.2
2018-09-08T15:10:49.597Z,77.4
2018-09-08T15:21:04.264Z,78.2
2018-09-08T15:31:19.108Z,79.3
2018-09-08T15:41:33.115Z,79.2
2018-09-08T15:51:47.377Z,79.5
2018-09-08T16:02:03.044Z,79.9
2018-09-08T16:12:18.367Z,79.9
2018-09-08T16:22:33.511Z,80.4
2018-09-08T16:32:48.840Z,81
2018-09-08T16:43:04.515Z,81.8
2018-09-08T16:53:19.075Z,82.5
2018-09-08T17:03:33.967Z,83
2018-09-08T17:13:49.365Z,83.8
2018-09-08T17:24:03.394Z,84.4
2018-09-08T17:34:17.198Z,85
2018-09-08T17:44:30.954Z,85.9
2018-09-08T17:54:45.492Z,86.3
2018-09-08T18:04:59.743Z,86.2
2018-09-08T18:15:14.523Z,84
2018-09-08T18:25:30.018Z,82.1
2018-09-08T18:35:43.865Z,83
2018-09-08T18:45:57.826Z,83.6
2018-09-08T18:56:12.816Z,78.3
2018-09-08T19:06:28.243Z,75.2
2018-09-08T19:16:43.039Z,77
2018-09-08T19:26:58.359Z,81
2018-09-08T19:37:12.578Z,76.5
2018-09-08T19:47:27.361Z,73.8
2018-09-08T19:57:41.150Z,72.1
2018-09-08T20:07:55.475Z,66.4
2018-09-08T20:18:10.742Z,71.6
2018-09-08T20:28:26.323Z,65.9
2018-09-08T20:38:40.552Z,65.2
2018-09-08T20:48:56.156Z,68.7
2018-09-08T20:59:10.297Z,66.5
2018-09-08T21:09:25.401Z,63.8
2018-09-08T21:19:41.136Z,61.8
2018-09-08T21:29:55.198Z,63.9
2018-09-08T21:40:09.188Z,58
2018-09-08T21:50:24.081Z,56.4
2018-09-08T22:00:37.853Z,53.8
2018-09-08T22:10:52.390Z,53.9
2018-09-08T22:21:06.202Z,48.6
2018-09-08T22:31:21.383Z,45.8
2018-09-08T22:41:36.898Z,41.8
2018-09-08T22:51:51.208Z,45.1
2018-09-08T23:02:06.564Z,49
2018-09-08T23:12:20.252Z,52.9
2018-09-08T23:22:35.498Z,56.8
2018-09-08T23:32:50.020Z,54.8
2018-09-08T23:43:04.231Z,53.1
2018-09-08T23:53:19.173Z,45.5
